createdAt,value
2024-04-30T05:38:08.992Z,66.39
2024-04-30T05:41:13.008Z,66.09
2024-04-30T05:44:19.434Z,65.77
2024-04-30T05:47:23.226Z,65.58
2024-04-30T05:50:29.232Z,65.33
2024-04-30T05:53:39.092Z,65.62
2024-04-30T05:56:42.436Z,65.15
2024-04-30T05:59:48.877Z,64.58
2024-04-30T06:02:52.174Z,64.31
2024-04-30T06:05:58.585Z,64.27
2024-04-30T06:09:04.648Z,64.22
2024-04-30T06:12:11.857Z,63.56
2024-04-30T06:15:15.277Z,62.90
2024-04-30T06:18:21.763Z,62.82
2024-04-30T06:21:31.172Z,62.80
2024-04-30T06:24:45.334Z,62.46
2024-04-30T06:27:49.320Z,61.99
2024-04-30T06:30:55.741Z,61.31
2024-04-30T06:33:59.040Z,60.63
2024-04-30T06:37:05.569Z,60.62
2024-04-30T06:40:15.009Z,59.84
2024-04-30T06:43:18.991Z,59.89
2024-04-30T06:46:25.066Z,59.22
2024-04-30T06:49:28.972Z,58.74
2024-04-30T06:52:35.137Z,58.57
2024-04-30T06:55:42.005Z,59.00
2024-04-30T06:58:48.990Z,57.87
2024-04-30T07:01:52.730Z,57.76
2024-04-30T07:04:58.853Z,57.66
2024-04-30T07:08:02.990Z,57.17
2024-04-30T07:11:12.616Z,57.65
2024-04-30T07:14:19.081Z,57.31
2024-04-30T07:17:22.627Z,56.66
2024-04-30T07:20:29.803Z,56.44
2024-04-30T07:23:35.877Z,55.88
2024-04-30T07:26:42.491Z,55.31
2024-04-30T07:29:48.525Z,54.59
2024-04-30T07:32:52.436Z,54.48
2024-04-30T07:35:58.558Z,54.27
2024-04-30T07:39:02.480Z,53.80
2024-04-30T07:42:11.720Z,54.18
2024-04-30T07:45:15.819Z,52.85
2024-04-30T07:48:21.924Z,52.76
2024-04-30T07:51:26.038Z,51.76
2024-04-30T07:54:31.992Z,51.47
2024-04-30T07:57:38.478Z,52.02
2024-04-30T08:00:44.594Z,50.68
2024-04-30T08:03:51.261Z,51.06
2024-04-30T08:06:54.601Z,50.28
2024-04-30T08:10:01.421Z,49.95
2024-04-30T08:13:11.376Z,48.81
2024-04-30T08:16:18.549Z,49.49
2024-04-30T08:19:24.677Z,48.85
2024-04-30T08:22:31.638Z,49.24
2024-04-30T08:25:37.626Z,48.73
2024-04-30T08:28:44.129Z,48.23
2024-04-30T08:31:50.649Z,47.87
2024-04-30T08:34:57.613Z,47.92
2024-04-30T08:38:01.807Z,48.36
2024-04-30T08:41:10.072Z,47.63
2024-04-30T08:44:20.790Z,46.67
2024-04-30T08:47:30.992Z,47.03
2024-04-30T08:50:37.194Z,46.01
2024-04-30T08:53:43.761Z,46.35
2024-04-30T08:56:47.108Z,45.81
2024-04-30T08:59:56.617Z,45.55
2024-04-30T09:03:04.212Z,44.39
2024-04-30T09:06:13.307Z,45.04
2024-04-30T09:09:21.207Z,44.93
2024-04-30T09:12:25.115Z,43.84
2024-04-30T09:15:33.841Z,43.96
2024-04-30T09:18:40.467Z,43.93
2024-04-30T09:21:48.040Z,44.22
2024-04-30T09:24:54.610Z,44.21
2024-04-30T09:27:57.961Z,43.70
2024-04-30T09:31:11.381Z,43.07
2024-04-30T09:34:17.498Z,42.97
2024-04-30T09:37:26.407Z,43.45
2024-04-30T09:40:34.569Z,42.89
2024-04-30T09:43:42.433Z,43.30
2024-04-30T09:46:54.538Z,42.85
2024-04-30T09:50:06.395Z,42.89
2024-04-30T09:53:13.652Z,41.96
2024-04-30T09:56:21.421Z,42.35
2024-04-30T09:59:27.403Z,42.47
2024-04-30T10:02:41.620Z,41.66
2024-04-30T10:05:53.524Z,42.72
2024-04-30T10:09:00.278Z,42.08
2024-04-30T10:12:06.724Z,41.59
2024-04-30T10:15:15.700Z,41.22
2024-04-30T10:18:30.625Z,41.68
2024-04-30T10:21:38.818Z,41.63
2024-04-30T10:24:42.212Z,41.25
2024-04-30T10:27:49.041Z,41.46
2024-04-30T10:30:52.313Z,41.46
2024-04-30T10:34:12.141Z,39.45
2024-04-30T10:37:18.214Z,40.39
2024-04-30T10:40:24.826Z,40.71
2024-04-30T10:43:31.069Z,40.15
2024-04-30T10:46:37.839Z,40.26
2024-04-30T10:49:46.852Z,40.40
2024-04-30T10:52:50.634Z,40.50
2024-04-30T10:56:00.952Z,40.27
2024-04-30T10:59:07.774Z,39.87
2024-04-30T11:02:13.840Z,34.53
2024-04-30T11:05:24.661Z,39.49
2024-04-30T11:08:29.302Z,40.10
2024-04-30T11:11:55.036Z,40.04
2024-04-30T11:14:58.490Z,39.98
2024-04-30T11:18:05.143Z,39.60
2024-04-30T11:21:13.993Z,39.23
2024-04-30T11:24:18.134Z,39.48
2024-04-30T11:27:24.135Z,39.87
2024-04-30T11:30:30.445Z,38.98
2024-04-30T11:33:36.452Z,39.22
2024-04-30T11:36:45.893Z,38.84
2024-04-30T11:39:51.914Z,39.53
2024-04-30T11:42:55.831Z,39.13
2024-04-30T11:46:01.803Z,39.22
2024-04-30T11:49:08.200Z,39.36
2024-04-30T11:52:14.246Z,39.17
2024-04-30T11:55:20.602Z,39.29
2024-04-30T11:58:26.593Z,38.83
2024-04-30T12:01:33.088Z,38.53
2024-04-30T12:04:36.497Z,38.60
2024-04-30T12:07:45.797Z,38.63
2024-04-30T12:10:49.228Z,39.11
2024-04-30T12:13:57.354Z,38.92
2024-04-30T12:17:03.483Z,38.26
2024-04-30T12:20:12.121Z,38.58
2024-04-30T12:23:22.090Z,38.48
2024-04-30T12:26:28.525Z,38.24
2024-04-30T12:29:34.454Z,38.45
2024-04-30T12:32:38.401Z,38.23
2024-04-30T12:35:46.693Z,38.68
2024-04-30T12:38:53.604Z,38.62
2024-04-30T12:41:59.596Z,38.52
2024-04-30T12:45:06.479Z,38.50
2024-04-30T12:48:12.643Z,38.19
2024-04-30T12:51:18.028Z,38.63
2024-04-30T12:54:26.897Z,38.17
2024-04-30T12:57:33.315Z,38.39
2024-04-30T13:00:36.628Z,38.62
2024-04-30T13:03:43.141Z,38.69
2024-04-30T13:06:47.095Z,38.23
2024-04-30T13:09:56.332Z,38.31
2024-04-30T13:13:02.390Z,39.04
2024-04-30T13:16:07.180Z,38.47
2024-04-30T13:19:13.541Z,38.55
2024-04-30T13:22:17.475Z,38.18
2024-04-30T13:25:26.360Z,38.06
2024-04-30T13:28:30.243Z,38.43
2024-04-30T13:31:37.190Z,37.89
2024-04-30T13:34:42.670Z,37.79
2024-04-30T13:37:49.124Z,37.59
2024-04-30T13:41:00.928Z,37.34
2024-04-30T13:44:08.007Z,37.93
2024-04-30T13:47:11.416Z,38.21
2024-04-30T13:50:18.221Z,37.66
2024-04-30T13:53:24.375Z,37.46
2024-04-30T13:56:31.062Z,37.62
2024-04-30T13:59:37.271Z,37.77
2024-04-30T14:02:43.767Z,38.03
2024-04-30T14:05:49.803Z,38.09
2024-04-30T15:32:02.399Z,37.76
2024-04-30T15:35:07.083Z,37.66
2024-04-30T15:38:13.069Z,38.42
2024-04-30T15:41:23.964Z,37.68
2024-04-30T15:44:30.030Z,38.53
2024-04-30T15:47:36.710Z,38.43
2024-04-30T15:50:42.797Z,38.29
2024-04-30T15:53:49.452Z,37.82
2024-04-30T15:57:01.375Z,38.11
2024-04-30T16:00:12.002Z,38.05
2024-04-30T16:03:23.339Z,38.33
2024-04-30T16:06:30.012Z,38.95
2024-04-30T16:09:39.067Z,38.96
2024-04-30T16:12:47.668Z,38.91
2024-04-30T16:16:00.259Z,39.04
2024-04-30T16:19:15.630Z,39.03
2024-04-30T16:22:21.980Z,39.16
2024-04-30T16:25:28.722Z,39.38
2024-04-30T16:28:32.215Z,39.45
2024-04-30T16:31:38.839Z,39.29
2024-04-30T16:34:47.571Z,39.26
2024-04-30T16:37:51.387Z,39.96
2024-04-30T16:40:57.546Z,39.31
2024-04-30T16:44:16.423Z,39.05
2024-04-30T16:47:35.123Z,39.39
2024-04-30T16:50:56.533Z,39.62
2024-04-30T16:54:02.028Z,39.02
2024-04-30T16:57:07.434Z,38.77
2024-04-30T17:00:38.277Z,39.11
2024-04-30T17:03:41.310Z,39.24
2024-04-30T17:06:51.766Z,39.95
2024-04-30T17:09:56.749Z,39.99
2024-04-30T17:13:02.300Z,40.31
2024-04-30T17:16:06.311Z,40.38
2024-04-30T17:19:11.991Z,40.75
2024-04-30T17:22:16.918Z,41.03
2024-04-30T17:25:22.256Z,41.35
2024-04-30T17:28:25.076Z,41.08
2024-04-30T17:31:30.488Z,41.13
2024-04-30T17:34:33.344Z,41.43
2024-04-30T17:37:41.451Z,41.67
2024-04-30T17:40:47.232Z,41.73
2024-04-30T17:43:52.634Z,42.08
2024-04-30T17:46:58.101Z,42.67
2024-04-30T17:50:01.322Z,42.43
2024-04-30T17:53:08.698Z,42.57
2024-04-30T17:56:14.375Z,42.79
2024-04-30T17:59:19.334Z,42.87
2024-04-30T18:02:24.748Z,43.01
2024-04-30T18:05:27.601Z,43.18
2024-04-30T18:08:35.402Z,43.34
2024-04-30T18:11:41.060Z,43.65
2024-04-30T18:14:47.368Z,44.05
2024-04-30T18:17:54.183Z,44.25
2024-04-30T18:20:59.966Z,44.08
2024-04-30T18:24:08.006Z,44.06
2024-04-30T18:27:12.883Z,43.87
2024-04-30T18:30:18.229Z,43.73
2024-04-30T18:33:21.921Z,43.53
2024-04-30T18:36:27.779Z,44.09
2024-04-30T18:39:33.599Z,44.29
2024-04-30T18:42:38.648Z,44.00
2024-04-30T18:45:44.224Z,44.40
2024-04-30T18:48:47.801Z,44.62
2024-04-30T18:51:55.061Z,44.20
2024-04-30T18:55:00.207Z,44.39
2024-04-30T18:58:05.778Z,44.82
2024-04-30T19:01:09.283Z,44.61
2024-04-30T19:04:15.038Z,44.78
2024-04-30T19:07:19.968Z,44.63
2024-04-30T19:10:27.529Z,44.32
2024-04-30T19:13:32.575Z,44.93
2024-04-30T19:16:41.333Z,44.83
2024-04-30T19:19:49.626Z,44.98
2024-04-30T19:22:58.470Z,44.65
2024-04-30T19:26:04.079Z,44.73
2024-04-30T19:29:09.539Z,44.73
2024-04-30T19:32:15.944Z,44.70
2024-04-30T19:35:19.224Z,44.42
2024-04-30T19:38:24.234Z,44.50
2024-04-30T19:41:31.933Z,44.19
2024-04-30T19:45:08.600Z,44.45
2024-04-30T19:48:17.015Z,43.99
2024-04-30T19:51:22.675Z,44.45
2024-04-30T19:54:28.162Z,44.38
2024-04-30T19:57:33.148Z,44.48
2024-04-30T20:00:38.793Z,44.30
2024-04-30T20:03:41.819Z,44.55
2024-04-30T20:06:47.529Z,44.39
2024-04-30T20:09:52.652Z,44.55
2024-04-30T20:12:58.151Z,44.25
2024-04-30T20:16:03.160Z,44.55
2024-04-30T20:19:09.353Z,44.53
